sensor_id;sensor_type;location;lat;lon;timestamp;pressure;altitude;pressure_sealevel;temperature;humidity
21240;BME280;10778;48.962;9.018;2024-02-21T00:02:23;100131.75;;;4.10;100.00
21240;BME280;10778;48.962;9.018;2024-02-21T00:04:49;100125.28;;;4.19;100.00
21240;BME280;10778;48.962;9.018;2024-02-21T00:07:15;100130.69;;;4.14;100.00
21240;BME280;10778;48.962;9.018;2024-02-21T00:09:41;100123.50;;;4.19;100.00
21240;BME280;10778;48.962;9.018;2024-02-21T00:12:07;100113.72;;;4.24;100.00
21240;BME280;10778;48.962;9.018;2024-02-21T00:14:33;100100.78;;;4.23;100.00
21240;BME280;10778;48.962;9.018;2024-02-21T00:16:59;100107.88;;;4.19;100.00
21240;BME280;10778;48.962;9.018;2024-02-21T00:19:25;100100.72;;;4.24;100.00
21240;BME280;10778;48.962;9.018;2024-02-21T00:21:51;100092.03;;;4.24;100.00
21240;BME280;10778;48.962;9.018;2024-02-21T00:24:17;100089.59;;;4.21;100.00
21240;BME280;10778;48.962;9.018;2024-02-21T00:26:43;100082.75;;;4.18;100.00
21240;BME280;10778;48.962;9.018;2024-02-21T00:29:09;100078.53;;;4.16;100.00
21240;BME280;10778;48.962;9.018;2024-02-21T00:31:35;100072.47;;;4.15;100.00
21240;BME280;10778;48.962;9.018;2024-02-21T00:34:01;100066.13;;;4.21;100.00
21240;BME280;10778;48.962;9.018;2024-02-21T00:36:27;100063.31;;;4.25;100.00
21240;BME280;10778;48.962;9.018;2024-02-21T00:38:53;100058.94;;;4.26;100.00
21240;BME280;10778;48.962;9.018;2024-02-21T00:41:19;100055.41;;;4.27;100.00
21240;BME280;10778;48.962;9.018;2024-02-21T00:43:45;100054.38;;;4.31;100.00
21240;BME280;10778;48.962;9.018;2024-02-21T00:46:11;100049.94;;;4.33;100.00
21240;BME280;10778;48.962;9.018;2024-02-21T00:48:37;100049.00;;;4.34;100.00
21240;BME280;10778;48.962;9.018;2024-02-21T00:51:03;100049.84;;;4.35;100.00
21240;BME280;10778;48.962;9.018;2024-02-21T00:53:29;100056.59;;;4.39;100.00
21240;BME280;10778;48.962;9.018;2024-02-21T00:55:55;100046.94;;;4.41;100.00
21240;BME280;10778;48.962;9.018;2024-02-21T00:58:22;100035.59;;;4.42;100.00
21240;BME280;10778;48.962;9.018;2024-02-21T01:00:48;100034.75;;;4.41;100.00
21240;BME280;10778;48.962;9.018;2024-02-21T01:03:14;100037.44;;;4.40;100.00
21240;BME280;10778;48.962;9.018;2024-02-21T01:05:40;100032.16;;;4.41;100.00
21240;BME280;10778;48.962;9.018;2024-02-21T01:08:06;100033.06;;;4.40;100.00
21240;BME280;10778;48.962;9.018;2024-02-21T01:10:32;100028.72;;;4.41;100.00
21240;BME280;10778;48.962;9.018;2024-02-21T01:12:58;100024.47;;;4.38;100.00
21240;BME280;10778;48.962;9.018;2024-02-21T01:15:24;100020.66;;;4.46;100.00
21240;BME280;10778;48.962;9.018;2024-02-21T01:17:50;100018.88;;;4.29;100.00
21240;BME280;10778;48.962;9.018;2024-02-21T01:20:21;100009.31;;;4.29;100.00
21240;BME280;10778;48.962;9.018;2024-02-21T01:22:46;100004.16;;;4.27;100.00
21240;BME280;10778;48.962;9.018;2024-02-21T01:25:12;100001.56;;;4.27;100.00
21240;BME280;10778;48.962;9.018;2024-02-21T01:27:38;99997.28;;;4.26;100.00
21240;BME280;10778;48.962;9.018;2024-02-21T01:30:05;99998.09;;;4.27;100.00
21240;BME280;10778;48.962;9.018;2024-02-21T01:32:31;99996.34;;;4.27;100.00
21240;BME280;10778;48.962;9.018;2024-02-21T01:34:57;99991.22;;;4.26;100.00
21240;BME280;10778;48.962;9.018;2024-02-21T01:37:23;99988.59;;;4.26;100.00
21240;BME280;10778;48.962;9.018;2024-02-21T01:39:49;99987.06;;;4.22;100.00
21240;BME280;10778;48.962;9.018;2024-02-21T01:42:16;99986.78;;;4.28;100.00
21240;BME280;10778;48.962;9.018;2024-02-21T01:44:42;99989.31;;;4.30;100.00
21240;BME280;10778;48.962;9.018;2024-02-21T01:47:10;99984.69;;;4.35;100.00
21240;BME280;10778;48.962;9.018;2024-02-21T01:49:36;99983.03;;;4.34;100.00
21240;BME280;10778;48.962;9.018;2024-02-21T01:52:03;99976.66;;;4.39;100.00
21240;BME280;10778;48.962;9.018;2024-02-21T01:54:29;99975.59;;;4.44;100.00
21240;BME280;10778;48.962;9.018;2024-02-21T01:56:55;99973.59;;;4.49;100.00
21240;BME280;10778;48.962;9.018;2024-02-21T01:59:21;99966.56;;;4.51;100.00
21240;BME280;10778;48.962;9.018;2024-02-21T02:01:48;99964.88;;;4.50;100.00
21240;BME280;10778;48.962;9.018;2024-02-21T02:04:14;99960.09;;;4.58;100.00
21240;BME280;10778;48.962;9.018;2024-02-21T02:06:40;99948.06;;;4.73;100.00
21240;BME280;10778;48.962;9.018;2024-02-21T02:09:07;99939.16;;;4.77;100.00
21240;BME280;10778;48.962;9.018;2024-02-21T02:11:33;99936.91;;;4.87;100.00
21240;BME280;10778;48.962;9.018;2024-02-21T02:13:59;99931.28;;;4.95;100.00
21240;BME280;10778;48.962;9.018;2024-02-21T02:16:25;99913.78;;;4.97;100.00
21240;BME280;10778;48.962;9.018;2024-02-21T02:18:51;99902.00;;;5.06;100.00
21240;BME280;10778;48.962;9.018;2024-02-21T02:21:29;99894.53;;;5.16;100.00
21240;BME280;10778;48.962;9.018;2024-02-21T02:23:56;99896.47;;;5.12;100.00
21240;BME280;10778;48.962;9.018;2024-02-21T02:26:22;99915.41;;;5.16;100.00
21240;BME280;10778;48.962;9.018;2024-02-21T02:28:48;99942.66;;;5.10;100.00
21240;BME280;10778;48.962;9.018;2024-02-21T02:31:14;99956.38;;;4.97;100.00
21240;BME280;10778;48.962;9.018;2024-02-21T02:33:42;99959.69;;;4.83;100.00
21240;BME280;10778;48.962;9.018;2024-02-21T02:36:09;99951.84;;;4.83;100.00
21240;BME280;10778;48.962;9.018;2024-02-21T02:38:35;99944.50;;;4.92;100.00
21240;BME280;10778;48.962;9.018;2024-02-21T02:41:01;99938.59;;;4.88;100.00
21240;BME280;10778;48.962;9.018;2024-02-21T02:43:27;99938.59;;;4.88;100.00
21240;BME280;10778;48.962;9.018;2024-02-21T02:45:53;99924.84;;;4.84;100.00
21240;BME280;10778;48.962;9.018;2024-02-21T02:48:19;99919.75;;;4.83;100.00
21240;BME280;10778;48.962;9.018;2024-02-21T02:50:45;99918.06;;;4.82;100.00
21240;BME280;10778;48.962;9.018;2024-02-21T02:53:12;99900.16;;;4.92;100.00
21240;BME280;10778;48.962;9.018;2024-02-21T02:55:37;99908.38;;;4.84;100.00
21240;BME280;10778;48.962;9.018;2024-02-21T02:58:03;99919.75;;;4.83;100.00
21240;BME280;10778;48.962;9.018;2024-02-21T03:00:29;99904.91;;;4.83;100.00
21240;BME280;10778;48.962;9.018;2024-02-21T03:02:56;99899.31;;;4.91;100.00
21240;BME280;10778;48.962;9.018;2024-02-21T03:05:22;99898.38;;;4.76;100.00
21240;BME280;10778;48.962;9.018;2024-02-21T03:07:48;99897.84;;;4.69;100.00
21240;BME280;10778;48.962;9.018;2024-02-21T03:10:17;99894.66;;;4.64;100.00
21240;BME280;10778;48.962;9.018;2024-02-21T03:12:43;99892.34;;;4.58;100.00
21240;BME280;10778;48.962;9.018;2024-02-21T03:15:09;99891.56;;;4.56;100.00
21240;BME280;10778;48.962;9.018;2024-02-21T03:17:35;99884.63;;;4.57;100.00
21240;BME280;10778;48.962;9.018;2024-02-21T03:20:04;99873.25;;;4.58;100.00
21240;BME280;10778;48.962;9.018;2024-02-21T03:22:31;99867.53;;;4.51;100.00
21240;BME280;10778;48.962;9.018;2024-02-21T03:24:58;99867.94;;;4.43;100.00
21240;BME280;10778;48.962;9.018;2024-02-21T03:27:24;99861.84;;;4.43;100.00
21240;BME280;10778;48.962;9.018;2024-02-21T03:29:50;99864.47;;;4.43;100.00
21240;BME280;10778;48.962;9.018;2024-02-21T03:32:16;99865.38;;;4.41;100.00
21240;BME280;10778;48.962;9.018;2024-02-21T03:34:42;99869.69;;;4.43;100.00
21240;BME280;10778;48.962;9.018;2024-02-21T03:37:08;99884.66;;;4.39;100.00
21240;BME280;10778;48.962;9.018;2024-02-21T03:39:34;99868.16;;;4.38;100.00
21240;BME280;10778;48.962;9.018;2024-02-21T03:42:00;99867.47;;;4.35;100.00
21240;BME280;10778;48.962;9.018;2024-02-21T03:44:31;99854.94;;;4.25;100.00
21240;BME280;10778;48.962;9.018;2024-02-21T03:46:58;99843.66;;;4.25;100.00
21240;BME280;10778;48.962;9.018;2024-02-21T03:49:24;99848.03;;;4.24;100.00
21240;BME280;10778;48.962;9.018;2024-02-21T03:51:50;99844.69;;;4.22;100.00
21240;BME280;10778;48.962;9.018;2024-02-21T03:54:16;99848.19;;;4.21;100.00
21240;BME280;10778;48.962;9.018;2024-02-21T03:56:42;99853.41;;;4.21;100.00
21240;BME280;10778;48.962;9.018;2024-02-21T03:59:08;99839.53;;;4.21;100.00
21240;BME280;10778;48.962;9.018;2024-02-21T04:01:34;99831.19;;;4.14;100.00
21240;BME280;10778;48.962;9.018;2024-02-21T04:04:01;99825.38;;;4.09;100.00
21240;BME280;10778;48.962;9.018;2024-02-21T04:06:27;99824.78;;;4.04;100.00
21240;BME280;10778;48.962;9.018;2024-02-21T04:08:53;99809.16;;;4.04;100.00
21240;BME280;10778;48.962;9.018;2024-02-21T04:11:19;99794.47;;;4.03;100.00
21240;BME280;10778;48.962;9.018;2024-02-21T04:13:45;99802.50;;;3.98;100.00
21240;BME280;10778;48.962;9.018;2024-02-21T04:16:14;99818.50;;;3.90;100.00
21240;BME280;10778;48.962;9.018;2024-02-21T04:18:41;99814.44;;;3.84;100.00
21240;BME280;10778;48.962;9.018;2024-02-21T04:21:13;99823.34;;;3.80;100.00
21240;BME280;10778;48.962;9.018;2024-02-21T04:23:39;99816.75;;;3.73;100.00
21240;BME280;10778;48.962;9.018;2024-02-21T04:26:05;99814.28;;;3.70;100.00
21240;BME280;10778;48.962;9.018;2024-02-21T04:28:31;99817.88;;;3.67;100.00
21240;BME280;10778;48.962;9.018;2024-02-21T04:30:57;99817.00;;;3.68;100.00
21240;BME280;10778;48.962;9.018;2024-02-21T04:33:23;99821.41;;;3.66;100.00
21240;BME280;10778;48.962;9.018;2024-02-21T04:35:49;99826.91;;;3.60;100.00
21240;BME280;10778;48.962;9.018;2024-02-21T04:38:15;99821.09;;;3.55;100.00
21240;BME280;10778;48.962;9.018;2024-02-21T04:40:41;99833.16;;;3.38;100.00
21240;BME280;10778;48.962;9.018;2024-02-21T04:43:07;99839.28;;;3.37;100.00
21240;BME280;10778;48.962;9.018;2024-02-21T04:45:33;99840.22;;;3.36;100.00
21240;BME280;10778;48.962;9.018;2024-02-21T04:47:59;99840.50;;;3.30;100.00
21240;BME280;10778;48.962;9.018;2024-02-21T04:50:25;99834.88;;;3.20;100.00
21240;BME280;10778;48.962;9.018;2024-02-21T04:52:51;99827.16;;;3.19;100.00
21240;BME280;10778;48.962;9.018;2024-02-21T04:55:17;99825.53;;;3.16;100.00
21240;BME280;10778;48.962;9.018;2024-02-21T04:57:43;99828.31;;;3.13;100.00
21240;BME280;10778;48.962;9.018;2024-02-21T05:00:09;99828.16;;;3.16;100.00
21240;BME280;10778;48.962;9.018;2024-02-21T05:02:36;99817.44;;;3.22;100.00
21240;BME280;10778;48.962;9.018;2024-02-21T05:05:02;99810.50;;;3.04;100.00
21240;BME280;10778;48.962;9.018;2024-02-21T05:07:28;99808.06;;;3.01;100.00
21240;BME280;10778;48.962;9.018;2024-02-21T05:09:54;99808.97;;;2.99;100.00
21240;BME280;10778;48.962;9.018;2024-02-21T05:12:20;99798.72;;;2.96;100.00
21240;BME280;10778;48.962;9.018;2024-02-21T05:14:47;99790.16;;;2.94;100.00
21240;BME280;10778;48.962;9.018;2024-02-21T05:17:13;99779.00;;;2.92;100.00
21240;BME280;10778;48.962;9.018;2024-02-21T05:19:39;99779.94;;;2.91;100.00
21240;BME280;10778;48.962;9.018;2024-02-21T05:22:04;99775.91;;;2.84;100.00
21240;BME280;10778;48.962;9.018;2024-02-21T05:24:30;99768.16;;;2.82;100.00
21240;BME280;10778;48.962;9.018;2024-02-21T05:26:56;99757.72;;;2.84;100.00
21240;BME280;10778;48.962;9.018;2024-02-21T05:29:22;99762.84;;;2.86;100.00
21240;BME280;10778;48.962;9.018;2024-02-21T05:34:18;99745.69;;;2.81;100.00
21240;BME280;10778;48.962;9.018;2024-02-21T05:36:44;99753.75;;;2.77;100.00
21240;BME280;10778;48.962;9.018;2024-02-21T05:39:10;99762.56;;;2.73;100.00
21240;BME280;10778;48.962;9.018;2024-02-21T05:41:36;99753.22;;;2.68;100.00
21240;BME280;10778;48.962;9.018;2024-02-21T05:44:02;99756.84;;;2.66;100.00
21240;BME280;10778;48.962;9.018;2024-02-21T05:46:28;99773.47;;;2.62;100.00
21240;BME280;10778;48.962;9.018;2024-02-21T05:48:54;99763.97;;;2.61;100.00
21240;BME280;10778;48.962;9.018;2024-02-21T05:51:20;99758.16;;;2.55;100.00
21240;BME280;10778;48.962;9.018;2024-02-21T05:53:46;99760.75;;;2.55;100.00
21240;BME280;10778;48.962;9.018;2024-02-21T05:56:15;99759.38;;;2.48;100.00
21240;BME280;10778;48.962;9.018;2024-02-21T05:58:42;99768.13;;;2.46;100.00
21240;BME280;10778;48.962;9.018;2024-02-21T06:01:08;99766.44;;;2.45;100.00
21240;BME280;10778;48.962;9.018;2024-02-21T06:03:35;99765.59;;;2.44;100.00
21240;BME280;10778;48.962;9.018;2024-02-21T06:06:02;99751.84;;;2.42;100.00
21240;BME280;10778;48.962;9.018;2024-02-21T06:08:28;99750.50;;;2.33;100.00
21240;BME280;10778;48.962;9.018;2024-02-21T06:10:54;99761.09;;;2.28;100.00
21240;BME280;10778;48.962;9.018;2024-02-21T06:13:24;99755.97;;;2.27;100.00
21240;BME280;10778;48.962;9.018;2024-02-21T06:15:50;99759.69;;;2.21;100.00
21240;BME280;10778;48.962;9.018;2024-02-21T06:18:17;99761.22;;;2.25;100.00
21240;BME280;10778;48.962;9.018;2024-02-21T06:20:43;99768.38;;;2.20;100.00
21240;BME280;10778;48.962;9.018;2024-02-21T06:23:09;99769.63;;;2.11;100.00
21240;BME280;10778;48.962;9.018;2024-02-21T06:25:35;99774.69;;;2.15;100.00
21240;BME280;10778;48.962;9.018;2024-02-21T06:28:01;99766.97;;;2.13;100.00
21240;BME280;10778;48.962;9.018;2024-02-21T06:30:27;99768.88;;;2.09;100.00
21240;BME280;10778;48.962;9.018;2024-02-21T06:32:53;99774.69;;;2.15;100.00
21240;BME280;10778;48.962;9.018;2024-02-21T06:35:22;99766.84;;;2.16;100.00
21240;BME280;10778;48.962;9.018;2024-02-21T06:37:53;99761.38;;;2.22;100.00
21240;BME280;10778;48.962;9.018;2024-02-21T06:40:21;99757.53;;;2.31;100.00
21240;BME280;10778;48.962;9.018;2024-02-21T06:42:48;99750.50;;;2.33;100.00
21240;BME280;10778;48.962;9.018;2024-02-21T06:45:14;99748.53;;;2.38;100.00
21240;BME280;10778;48.962;9.018;2024-02-21T06:47:40;99743.28;;;2.40;100.00
21240;BME280;10778;48.962;9.018;2024-02-21T06:50:07;99736.47;;;2.56;100.00
21240;BME280;10778;48.962;9.018;2024-02-21T06:52:35;99733.47;;;2.66;100.00
21240;BME280;10778;48.962;9.018;2024-02-21T06:55:01;99741.78;;;2.73;100.00
21240;BME280;10778;48.962;9.018;2024-02-21T06:57:29;99731.94;;;2.79;100.00
21240;BME280;10778;48.962;9.018;2024-02-21T06:59:55;99727.94;;;2.91;100.00
21240;BME280;10778;48.962;9.018;2024-02-21T07:02:21;99720.44;;;3.03;100.00
21240;BME280;10778;48.962;9.018;2024-02-21T07:04:47;99720.06;;;3.10;100.00
21240;BME280;10778;48.962;9.018;2024-02-21T07:07:13;99716.41;;;3.15;100.00
21240;BME280;10778;48.962;9.018;2024-02-21T07:09:39;99717.91;;;3.89;100.00
21240;BME280;10778;48.962;9.018;2024-02-21T07:12:05;99716.19;;;4.70;100.00
21240;BME280;10778;48.962;9.018;2024-02-21T07:14:32;99713.53;;;5.63;100.00
21240;BME280;10778;48.962;9.018;2024-02-21T07:16:58;99708.28;;;6.23;100.00
21240;BME280;10778;48.962;9.018;2024-02-21T07:19:24;99699.81;;;6.47;99.82
21240;BME280;10778;48.962;9.018;2024-02-21T07:21:50;99687.06;;;6.97;97.81
21240;BME280;10778;48.962;9.018;2024-02-21T07:24:17;99697.19;;;7.29;91.34
21240;BME280;10778;48.962;9.018;2024-02-21T07:26:43;99695.00;;;7.75;88.69
21240;BME280;10778;48.962;9.018;2024-02-21T07:29:09;99682.00;;;8.49;84.11
21240;BME280;10778;48.962;9.018;2024-02-21T07:31:42;99685.59;;;7.85;85.20
21240;BME280;10778;48.962;9.018;2024-02-21T07:34:09;99692.72;;;6.49;90.01
21240;BME280;10778;48.962;9.018;2024-02-21T07:36:35;99688.69;;;7.13;92.89
21240;BME280;10778;48.962;9.018;2024-02-21T07:39:03;99678.25;;;7.64;89.55
21240;BME280;10778;48.962;9.018;2024-02-21T07:41:30;99668.94;;;7.73;85.11
21240;BME280;10778;48.962;9.018;2024-02-21T07:43:56;99668.41;;;7.55;90.04
21240;BME280;10778;48.962;9.018;2024-02-21T07:46:23;99667.59;;;8.31;84.83
21240;BME280;10778;48.962;9.018;2024-02-21T07:48:49;99663.03;;;8.08;86.32
21240;BME280;10778;48.962;9.018;2024-02-21T07:51:16;99669.00;;;8.10;86.58
21240;BME280;10778;48.962;9.018;2024-02-21T07:53:45;99675.84;;;7.48;88.01
21240;BME280;10778;48.962;9.018;2024-02-21T07:56:12;99674.44;;;7.17;92.64
21240;BME280;10778;48.962;9.018;2024-02-21T07:58:38;99677.84;;;7.45;93.04
21240;BME280;10778;48.962;9.018;2024-02-21T08:01:04;99676.44;;;8.54;87.67
21240;BME280;10778;48.962;9.018;2024-02-21T08:03:30;99678.44;;;7.87;89.39
21240;BME280;10778;48.962;9.018;2024-02-21T08:05:56;99691.34;;;7.90;92.30
21240;BME280;10778;48.962;9.018;2024-02-21T08:08:22;99687.75;;;8.04;90.60
21240;BME280;10778;48.962;9.018;2024-02-21T08:10:51;99683.72;;;8.75;87.46
21240;BME280;10778;48.962;9.018;2024-02-21T08:13:17;99675.19;;;8.47;89.74
21240;BME280;10778;48.962;9.018;2024-02-21T08:15:43;99662.16;;;8.45;90.32
21240;BME280;10778;48.962;9.018;2024-02-21T08:18:09;99664.78;;;8.45;88.47
21240;BME280;10778;48.962;9.018;2024-02-21T08:20:35;99657.28;;;8.40;89.04
21240;BME280;10778;48.962;9.018;2024-02-21T08:23:01;99664.06;;;8.43;88.97
21240;BME280;10778;48.962;9.018;2024-02-21T08:25:27;99654.50;;;8.55;90.05
21240;BME280;10778;48.962;9.018;2024-02-21T08:27:58;99657.28;;;8.40;91.24
21240;BME280;10778;48.962;9.018;2024-02-21T08:30:25;99647.97;;;8.85;88.58
21240;BME280;10778;48.962;9.018;2024-02-21T08:32:51;99632.34;;;8.84;86.80
21240;BME280;10778;48.962;9.018;2024-02-21T08:35:17;99624.97;;;9.36;83.93
21240;BME280;10778;48.962;9.018;2024-02-21T08:37:49;99623.63;;;9.19;83.20
21240;BME280;10778;48.962;9.018;2024-02-21T08:40:15;99626.75;;;8.64;85.02
21240;BME280;10778;48.962;9.018;2024-02-21T08:42:47;99635.41;;;8.16;88.17
21240;BME280;10778;48.962;9.018;2024-02-21T08:45:13;99633.66;;;8.03;89.41
21240;BME280;10778;48.962;9.018;2024-02-21T08:47:39;99632.25;;;7.60;94.74
21240;BME280;10778;48.962;9.018;2024-02-21T08:50:07;99625.41;;;7.96;93.55
21240;BME280;10778;48.962;9.018;2024-02-21T08:52:35;99628.81;;;8.10;90.65
21240;BME280;10778;48.962;9.018;2024-02-21T08:55:01;99621.66;;;7.88;91.04
21240;BME280;10778;48.962;9.018;2024-02-21T08:57:27;99620.53;;;7.66;90.23
21240;BME280;10778;48.962;9.018;2024-02-21T08:59:53;99614.31;;;7.93;87.21
21240;BME280;10778;48.962;9.018;2024-02-21T09:02:19;99613.78;;;8.01;87.67
21240;BME280;10778;48.962;9.018;2024-02-21T09:04:45;99612.22;;;7.85;89.50
21240;BME280;10778;48.962;9.018;2024-02-21T09:07:11;99614.22;;;7.81;91.01
21240;BME280;10778;48.962;9.018;2024-02-21T09:09:37;99622.22;;;7.54;92.26
21240;BME280;10778;48.962;9.018;2024-02-21T09:12:06;99620.00;;;7.74;89.35
21240;BME280;10778;48.962;9.018;2024-02-21T09:14:33;99611.69;;;7.93;88.61
21240;BME280;10778;48.962;9.018;2024-02-21T09:16:59;99604.13;;;8.25;89.67
21240;BME280;10778;48.962;9.018;2024-02-21T09:19:25;99600.69;;;8.25;88.11
21240;BME280;10778;48.962;9.018;2024-02-21T09:21:51;99593.25;;;8.56;85.95
21240;BME280;10778;48.962;9.018;2024-02-21T09:24:17;99588.13;;;8.90;82.32
21240;BME280;10778;48.962;9.018;2024-02-21T09:26:43;99579.47;;;9.24;79.96
21240;BME280;10778;48.962;9.018;2024-02-21T09:29:09;99586.28;;;9.72;80.83
21240;BME280;10778;48.962;9.018;2024-02-21T09:31:35;99583.69;;;10.16;77.34
21240;BME280;10778;48.962;9.018;2024-02-21T09:34:02;99578.94;;;10.21;79.55
21240;BME280;10778;48.962;9.018;2024-02-21T09:36:28;99564.81;;;10.22;78.41
21240;BME280;10778;48.962;9.018;2024-02-21T09:38:54;99560.44;;;10.98;77.41
21240;BME280;10778;48.962;9.018;2024-02-21T09:41:29;99552.16;;;12.16;71.32
21240;BME280;10778;48.962;9.018;2024-02-21T09:43:55;99549.59;;;11.44;73.20
21240;BME280;10778;48.962;9.018;2024-02-21T09:46:28;99553.75;;;11.97;71.32
21240;BME280;10778;48.962;9.018;2024-02-21T09:52:05;99547.59;;;12.18;70.36
21240;BME280;10778;48.962;9.018;2024-02-21T09:54:35;99541.44;;;12.66;66.47
21240;BME280;10778;48.962;9.018;2024-02-21T09:57:02;99542.94;;;12.00;67.61
21240;BME280;10778;48.962;9.018;2024-02-21T09:59:30;99537.56;;;12.71;69.11
21240;BME280;10778;48.962;9.018;2024-02-21T10:01:56;99533.56;;;12.37;66.96
21240;BME280;10778;48.962;9.018;2024-02-21T10:04:23;99533.28;;;12.50;67.50
21240;BME280;10778;48.962;9.018;2024-02-21T10:06:49;99519.44;;;12.95;63.57
21240;BME280;10778;48.962;9.018;2024-02-21T10:11:49;99508.41;;;12.43;67.33
21240;BME280;10778;48.962;9.018;2024-02-21T10:14:16;99526.13;;;11.81;70.11
21240;BME280;10778;48.962;9.018;2024-02-21T10:16:48;99519.94;;;11.20;72.28
21240;BME280;10778;48.962;9.018;2024-02-21T10:19:20;99503.28;;;12.31;65.89
21240;BME280;10778;48.962;9.018;2024-02-21T10:22:04;99501.88;;;12.37;66.63
21240;BME280;10778;48.962;9.018;2024-02-21T10:24:31;99498.38;;;12.76;65.18
21240;BME280;10778;48.962;9.018;2024-02-21T10:27:05;99489.66;;;12.36;66.76
21240;BME280;10778;48.962;9.018;2024-02-21T10:29:34;99488.81;;;12.06;65.87
21240;BME280;10778;48.962;9.018;2024-02-21T10:32:11;99484.13;;;12.19;62.73
21240;BME280;10778;48.962;9.018;2024-02-21T10:34:39;99489.00;;;12.24;63.51
21240;BME280;10778;48.962;9.018;2024-02-21T10:37:07;99484.09;;;12.49;64.09
21240;BME280;10778;48.962;9.018;2024-02-21T10:39:34;99482.88;;;12.53;64.33
21240;BME280;10778;48.962;9.018;2024-02-21T10:42:02;99475.50;;;12.37;62.98
21240;BME280;10778;48.962;9.018;2024-02-21T10:44:35;99464.06;;;12.76;61.13
21240;BME280;10778;48.962;9.018;2024-02-21T10:47:10;99462.84;;;12.60;61.22
21240;BME280;10778;48.962;9.018;2024-02-21T10:49:39;99463.69;;;12.51;63.33
21240;BME280;10778;48.962;9.018;2024-02-21T10:52:33;99461.44;;;12.66;62.21
21240;BME280;10778;48.962;9.018;2024-02-21T10:55:13;99453.94;;;12.61;62.78
21240;BME280;10778;48.962;9.018;2024-02-21T10:57:42;99461.06;;;12.02;64.89
21240;BME280;10778;48.962;9.018;2024-02-21T11:00:09;99454.28;;;12.09;65.30
21240;BME280;10778;48.962;9.018;2024-02-21T11:02:38;99455.41;;;12.06;65.00
21240;BME280;10778;48.962;9.018;2024-02-21T11:05:06;99431.91;;;12.33;60.93
21240;BME280;10778;48.962;9.018;2024-02-21T11:07:35;99436.22;;;12.24;63.20
21240;BME280;10778;48.962;9.018;2024-02-21T11:10:03;99435.94;;;11.98;60.07
21240;BME280;10778;48.962;9.018;2024-02-21T11:12:32;99426.50;;;12.05;59.81
21240;BME280;10778;48.962;9.018;2024-02-21T11:15:08;99416.81;;;12.15;58.62
21240;BME280;10778;48.962;9.018;2024-02-21T11:17:34;99422.59;;;11.70;61.72
21240;BME280;10778;48.962;9.018;2024-02-21T11:20:11;99410.16;;;12.01;64.16
21240;BME280;10778;48.962;9.018;2024-02-21T11:22:42;99398.88;;;11.89;62.16
21240;BME280;10778;48.962;9.018;2024-02-21T11:25:08;99402.34;;;11.90;61.21
21240;BME280;10778;48.962;9.018;2024-02-21T11:27:37;99390.81;;;12.01;58.50
21240;BME280;10778;48.962;9.018;2024-02-21T11:30:06;99389.72;;;12.13;57.95
21240;BME280;10778;48.962;9.018;2024-02-21T11:32:32;99382.09;;;12.10;59.53
21240;BME280;10778;48.962;9.018;2024-02-21T11:34:59;99381.09;;;11.52;61.24
21240;BME280;10778;48.962;9.018;2024-02-21T11:37:32;99379.03;;;11.75;62.32
21240;BME280;10778;48.962;9.018;2024-02-21T11:39:59;99368.63;;;11.64;60.91
21240;BME280;10778;48.962;9.018;2024-02-21T11:42:26;99362.38;;;12.14;59.11
21240;BME280;10778;48.962;9.018;2024-02-21T11:44:53;99355.13;;;12.26;58.87
21240;BME280;10778;48.962;9.018;2024-02-21T11:47:23;99362.38;;;11.94;60.48
21240;BME280;10778;48.962;9.018;2024-02-21T11:49:49;99357.13;;;11.94;59.63
21240;BME280;10778;48.962;9.018;2024-02-21T11:52:23;99343.78;;;11.86;57.65
21240;BME280;10778;48.962;9.018;2024-02-21T11:54:54;99340.47;;;11.74;58.09
21240;BME280;10778;48.962;9.018;2024-02-21T11:57:22;99337.84;;;11.74;60.28
21240;BME280;10778;48.962;9.018;2024-02-21T11:59:48;99329.94;;;11.64;61.61
21240;BME280;10778;48.962;9.018;2024-02-21T12:02:15;99334.19;;;11.95;63.03
21240;BME280;10778;48.962;9.018;2024-02-21T12:04:43;99324.22;;;11.89;61.89
21240;BME280;10778;48.962;9.018;2024-02-21T12:07:09;99311.97;;;12.17;60.85
21240;BME280;10778;48.962;9.018;2024-02-21T12:09:35;99302.00;;;12.11;60.92
21240;BME280;10778;48.962;9.018;2024-02-21T12:12:03;99292.16;;;11.93;59.88
21240;BME280;10778;48.962;9.018;2024-02-21T12:14:31;99297.28;;;12.05;60.71
21240;BME280;10778;48.962;9.018;2024-02-21T12:16:58;99276.84;;;12.55;59.29
21240;BME280;10778;48.962;9.018;2024-02-21T12:19:25;99279.03;;;12.31;61.39
21240;BME280;10778;48.962;9.018;2024-02-21T12:21:51;99278.34;;;12.29;58.45
21240;BME280;10778;48.962;9.018;2024-02-21T12:24:25;99275.09;;;11.98;59.84
21240;BME280;10778;48.962;9.018;2024-02-21T12:26:51;99272.50;;;11.68;64.85
21240;BME280;10778;48.962;9.018;2024-02-21T12:29:19;99268.72;;;11.80;62.29
21240;BME280;10778;48.962;9.018;2024-02-21T12:31:45;99248.00;;;12.15;60.10
21240;BME280;10778;48.962;9.018;2024-02-21T12:34:11;99249.03;;;12.32;60.00
21240;BME280;10778;48.962;9.018;2024-02-21T12:36:46;99242.00;;;12.23;60.61
21240;BME280;10778;48.962;9.018;2024-02-21T12:39:14;99234.03;;;12.33;60.83
21240;BME280;10778;48.962;9.018;2024-02-21T12:41:41;99222.34;;;12.07;58.88
21240;BME280;10778;48.962;9.018;2024-02-21T12:44:09;99224.50;;;12.22;58.25
21240;BME280;10778;48.962;9.018;2024-02-21T12:46:37;99225.03;;;11.88;58.50
21240;BME280;10778;48.962;9.018;2024-02-21T12:49:04;99211.94;;;12.06;58.63
21240;BME280;10778;48.962;9.018;2024-02-21T12:51:31;99210.28;;;11.95;57.98
21240;BME280;10778;48.962;9.018;2024-02-21T12:53:57;99202.28;;;12.25;59.72
21240;BME280;10778;48.962;9.018;2024-02-21T12:56:23;99202.66;;;11.92;60.75
21240;BME280;10778;48.962;9.018;2024-02-21T12:58:50;99196.78;;;11.60;62.76
21240;BME280;10778;48.962;9.018;2024-02-21T13:01:16;99193.84;;;11.73;63.03
21240;BME280;10778;48.962;9.018;2024-02-21T13:03:43;99189.25;;;11.75;62.26
21240;BME280;10778;48.962;9.018;2024-02-21T13:06:08;99187.78;;;12.01;63.29
21240;BME280;10778;48.962;9.018;2024-02-21T13:08:37;99183.22;;;12.03;63.37